sensor_id;sensor_type;location;lat;lon;timestamp;P1;durP1;ratioP1;P2;durP2;ratioP2
14306;SDS011;7237;49.500;11.400;2024-03-02T00:01:30;24.80;;;16.30;;
14306;SDS011;7237;49.500;11.400;2024-03-02T00:03:57;22.47;;;15.00;;
14306;SDS011;7237;49.500;11.400;2024-03-02T00:06:25;20.93;;;15.53;;
14306;SDS011;7237;49.500;11.400;2024-03-02T00:08:55;21.43;;;15.73;;
14306;SDS011;7237;49.500;11.400;2024-03-02T00:11:23;23.40;;;16.30;;
14306;SDS011;7237;49.500;11.400;2024-03-02T00:13:52;22.27;;;15.60;;
14306;SDS011;7237;49.500;11.400;2024-03-02T00:16:19;21.30;;;15.60;;
14306;SDS011;7237;49.500;11.400;2024-03-02T00:18:46;24.43;;;15.87;;
14306;SDS011;7237;49.500;11.400;2024-03-02T00:21:13;21.77;;;15.60;;
14306;SDS011;7237;49.500;11.400;2024-03-02T00:23:43;21.00;;;15.47;;
14306;SDS011;7237;49.500;11.400;2024-03-02T00:26:12;23.70;;;16.07;;
14306;SDS011;7237;49.500;11.400;2024-03-02T00:28:40;24.00;;;16.23;;
14306;SDS011;7237;49.500;11.400;2024-03-02T00:31:09;23.00;;;16.30;;
14306;SDS011;7237;49.500;11.400;2024-03-02T00:33:37;21.47;;;15.30;;
14306;SDS011;7237;49.500;11.400;2024-03-02T00:36:06;21.63;;;13.93;;
14306;SDS011;7237;49.500;11.400;2024-03-02T00:38:33;17.97;;;13.20;;
14306;SDS011;7237;49.500;11.400;2024-03-02T00:41:03;19.23;;;13.27;;
14306;SDS011;7237;49.500;11.400;2024-03-02T00:46:18;22.17;;;15.47;;
14306;SDS011;7237;49.500;11.400;2024-03-02T00:48:48;20.90;;;15.33;;
14306;SDS011;7237;49.500;11.400;2024-03-02T00:51:15;20.70;;;14.13;;
14306;SDS011;7237;49.500;11.400;2024-03-02T00:53:42;22.70;;;16.27;;
14306;SDS011;7237;49.500;11.400;2024-03-02T00:56:10;23.83;;;16.43;;
14306;SDS011;7237;49.500;11.400;2024-03-02T00:58:37;22.87;;;16.00;;
14306;SDS011;7237;49.500;11.400;2024-03-02T01:01:04;21.43;;;16.17;;
14306;SDS011;7237;49.500;11.400;2024-03-02T01:03:33;21.90;;;15.90;;
14306;SDS011;7237;49.500;11.400;2024-03-02T01:06:00;23.37;;;16.50;;
14306;SDS011;7237;49.500;11.400;2024-03-02T01:08:27;25.13;;;15.33;;
14306;SDS011;7237;49.500;11.400;2024-03-02T01:10:54;25.07;;;17.07;;
14306;SDS011;7237;49.500;11.400;2024-03-02T01:13:22;23.97;;;17.90;;
14306;SDS011;7237;49.500;11.400;2024-03-02T01:15:49;22.33;;;15.43;;
14306;SDS011;7237;49.500;11.400;2024-03-02T01:18:16;22.67;;;16.10;;
14306;SDS011;7237;49.500;11.400;2024-03-02T01:20:44;22.53;;;14.97;;
14306;SDS011;7237;49.500;11.400;2024-03-02T01:23:11;21.53;;;16.10;;
14306;SDS011;7237;49.500;11.400;2024-03-02T01:25:38;25.93;;;15.77;;
14306;SDS011;7237;49.500;11.400;2024-03-02T01:28:06;26.37;;;16.43;;
14306;SDS011;7237;49.500;11.400;2024-03-02T01:30:33;27.97;;;17.23;;
14306;SDS011;7237;49.500;11.400;2024-03-02T01:33:01;25.77;;;16.47;;
14306;SDS011;7237;49.500;11.400;2024-03-02T01:35:30;29.37;;;17.30;;
14306;SDS011;7237;49.500;11.400;2024-03-02T01:37:58;24.23;;;16.97;;
14306;SDS011;7237;49.500;11.400;2024-03-02T01:40:25;23.87;;;15.87;;
14306;SDS011;7237;49.500;11.400;2024-03-02T01:42:53;25.57;;;16.53;;
14306;SDS011;7237;49.500;11.400;2024-03-02T01:45:23;26.00;;;16.87;;
14306;SDS011;7237;49.500;11.400;2024-03-02T01:47:50;23.33;;;16.83;;
14306;SDS011;7237;49.500;11.400;2024-03-02T01:50:23;26.60;;;17.90;;
14306;SDS011;7237;49.500;11.400;2024-03-02T01:52:51;26.00;;;16.90;;
14306;SDS011;7237;49.500;11.400;2024-03-02T01:55:19;27.93;;;17.00;;
14306;SDS011;7237;49.500;11.400;2024-03-02T01:57:47;24.73;;;17.10;;
14306;SDS011;7237;49.500;11.400;2024-03-02T02:00:14;26.67;;;16.93;;
14306;SDS011;7237;49.500;11.400;2024-03-02T02:02:41;24.07;;;17.33;;
14306;SDS011;7237;49.500;11.400;2024-03-02T02:05:09;27.77;;;18.07;;
14306;SDS011;7237;49.500;11.400;2024-03-02T02:07:36;22.20;;;15.87;;
14306;SDS011;7237;49.500;11.400;2024-03-02T02:10:03;24.93;;;16.70;;
14306;SDS011;7237;49.500;11.400;2024-03-02T02:12:31;26.27;;;16.87;;
14306;SDS011;7237;49.500;11.400;2024-03-02T02:14:58;26.57;;;16.37;;
14306;SDS011;7237;49.500;11.400;2024-03-02T02:17:25;22.43;;;16.63;;
14306;SDS011;7237;49.500;11.400;2024-03-02T02:19:53;23.83;;;16.73;;
14306;SDS011;7237;49.500;11.400;2024-03-02T02:22:21;28.53;;;16.97;;
14306;SDS011;7237;49.500;11.400;2024-03-02T02:24:48;24.50;;;15.80;;
14306;SDS011;7237;49.500;11.400;2024-03-02T02:27:15;28.27;;;18.03;;
14306;SDS011;7237;49.500;11.400;2024-03-02T02:29:42;30.13;;;17.67;;
14306;SDS011;7237;49.500;11.400;2024-03-02T02:32:09;28.03;;;18.43;;
14306;SDS011;7237;49.500;11.400;2024-03-02T02:34:36;28.93;;;18.30;;
14306;SDS011;7237;49.500;11.400;2024-03-02T02:37:03;24.10;;;17.37;;
14306;SDS011;7237;49.500;11.400;2024-03-02T02:39:32;27.57;;;17.27;;
14306;SDS011;7237;49.500;11.400;2024-03-02T02:41:59;26.83;;;17.70;;
14306;SDS011;7237;49.500;11.400;2024-03-02T02:44:27;26.33;;;17.87;;
14306;SDS011;7237;49.500;11.400;2024-03-02T02:46:54;28.40;;;19.23;;
14306;SDS011;7237;49.500;11.400;2024-03-02T02:49:22;23.97;;;17.40;;
14306;SDS011;7237;49.500;11.400;2024-03-02T02:51:49;25.27;;;17.70;;
14306;SDS011;7237;49.500;11.400;2024-03-02T02:54:16;28.50;;;18.37;;
14306;SDS011;7237;49.500;11.400;2024-03-02T02:56:44;27.53;;;17.33;;
14306;SDS011;7237;49.500;11.400;2024-03-02T02:59:11;26.07;;;17.90;;
14306;SDS011;7237;49.500;11.400;2024-03-02T03:01:38;24.93;;;17.70;;
14306;SDS011;7237;49.500;11.400;2024-03-02T03:04:05;26.97;;;18.03;;
14306;SDS011;7237;49.500;11.400;2024-03-02T03:06:32;30.97;;;19.93;;
14306;SDS011;7237;49.500;11.400;2024-03-02T03:08:59;29.17;;;19.03;;
14306;SDS011;7237;49.500;11.400;2024-03-02T03:11:27;26.03;;;17.97;;
14306;SDS011;7237;49.500;11.400;2024-03-02T03:13:55;22.90;;;17.23;;
14306;SDS011;7237;49.500;11.400;2024-03-02T03:16:22;26.13;;;19.13;;
14306;SDS011;7237;49.500;11.400;2024-03-02T03:18:49;25.77;;;17.60;;
14306;SDS011;7237;49.500;11.400;2024-03-02T03:21:18;29.13;;;18.30;;
14306;SDS011;7237;49.500;11.400;2024-03-02T03:23:45;27.07;;;18.23;;
14306;SDS011;7237;49.500;11.400;2024-03-02T03:26:12;24.67;;;18.10;;
14306;SDS011;7237;49.500;11.400;2024-03-02T03:28:39;29.43;;;18.10;;
14306;SDS011;7237;49.500;11.400;2024-03-02T03:31:08;29.23;;;18.87;;
14306;SDS011;7237;49.500;11.400;2024-03-02T03:33:35;29.83;;;18.27;;
14306;SDS011;7237;49.500;11.400;2024-03-02T03:36:02;30.77;;;18.27;;
14306;SDS011;7237;49.500;11.400;2024-03-02T03:38:30;27.60;;;19.10;;
14306;SDS011;7237;49.500;11.400;2024-03-02T03:40:57;24.50;;;16.97;;
14306;SDS011;7237;49.500;11.400;2024-03-02T03:43:24;30.63;;;18.30;;
14306;SDS011;7237;49.500;11.400;2024-03-02T03:45:51;30.07;;;17.40;;
14306;SDS011;7237;49.500;11.400;2024-03-02T03:48:19;29.33;;;18.30;;
14306;SDS011;7237;49.500;11.400;2024-03-02T03:50:46;27.63;;;17.40;;
14306;SDS011;7237;49.500;11.400;2024-03-02T03:53:13;29.97;;;18.23;;
14306;SDS011;7237;49.500;11.400;2024-03-02T03:55:40;24.53;;;16.80;;
14306;SDS011;7237;49.500;11.400;2024-03-02T03:58:08;27.03;;;18.10;;
14306;SDS011;7237;49.500;11.400;2024-03-02T04:00:35;26.53;;;17.00;;
14306;SDS011;7237;49.500;11.400;2024-03-02T04:03:02;28.50;;;17.53;;
14306;SDS011;7237;49.500;11.400;2024-03-02T04:05:30;27.17;;;16.67;;
14306;SDS011;7237;49.500;11.400;2024-03-02T04:07:57;29.27;;;19.43;;
14306;SDS011;7237;49.500;11.400;2024-03-02T04:10:25;27.90;;;17.47;;
14306;SDS011;7237;49.500;11.400;2024-03-02T04:12:52;27.93;;;17.87;;
14306;SDS011;7237;49.500;11.400;2024-03-02T04:15:19;32.40;;;17.80;;
14306;SDS011;7237;49.500;11.400;2024-03-02T04:17:48;30.00;;;17.63;;
14306;SDS011;7237;49.500;11.400;2024-03-02T04:20:15;27.53;;;17.83;;
14306;SDS011;7237;49.500;11.400;2024-03-02T04:22:43;27.90;;;18.70;;
14306;SDS011;7237;49.500;11.400;2024-03-02T04:25:11;31.73;;;18.07;;
14306;SDS011;7237;49.500;11.400;2024-03-02T04:27:38;27.20;;;17.80;;
14306;SDS011;7237;49.500;11.400;2024-03-02T04:30:05;26.43;;;17.30;;
14306;SDS011;7237;49.500;11.400;2024-03-02T04:32:32;28.77;;;19.10;;
14306;SDS011;7237;49.500;11.400;2024-03-02T04:35:01;24.57;;;16.97;;
14306;SDS011;7237;49.500;11.400;2024-03-02T04:37:28;30.73;;;17.63;;
14306;SDS011;7237;49.500;11.400;2024-03-02T04:39:57;23.93;;;17.33;;
14306;SDS011;7237;49.500;11.400;2024-03-02T04:42:24;26.20;;;16.83;;
14306;SDS011;7237;49.500;11.400;2024-03-02T04:44:51;23.57;;;16.00;;
14306;SDS011;7237;49.500;11.400;2024-03-02T04:47:18;23.53;;;16.17;;
14306;SDS011;7237;49.500;11.400;2024-03-02T04:49:45;24.10;;;16.77;;
14306;SDS011;7237;49.500;11.400;2024-03-02T04:52:12;21.53;;;16.10;;
14306;SDS011;7237;49.500;11.400;2024-03-02T04:54:39;24.47;;;16.13;;
14306;SDS011;7237;49.500;11.400;2024-03-02T04:57:21;29.23;;;17.60;;
14306;SDS011;7237;49.500;11.400;2024-03-02T04:59:48;25.60;;;17.37;;
14306;SDS011;7237;49.500;11.400;2024-03-02T05:02:15;24.10;;;16.67;;
14306;SDS011;7237;49.500;11.400;2024-03-02T05:04:42;25.13;;;16.23;;
14306;SDS011;7237;49.500;11.400;2024-03-02T05:07:10;25.57;;;16.70;;
14306;SDS011;7237;49.500;11.400;2024-03-02T05:09:37;21.73;;;15.33;;
14306;SDS011;7237;49.500;11.400;2024-03-02T05:12:04;26.63;;;17.00;;
14306;SDS011;7237;49.500;11.400;2024-03-02T05:15:07;24.60;;;16.10;;
14306;SDS011;7237;49.500;11.400;2024-03-02T05:17:35;23.53;;;16.10;;
14306;SDS011;7237;49.500;11.400;2024-03-02T05:20:02;24.80;;;16.93;;
14306;SDS011;7237;49.500;11.400;2024-03-02T05:22:29;21.33;;;16.03;;
14306;SDS011;7237;49.500;11.400;2024-03-02T05:24:56;22.70;;;15.73;;
14306;SDS011;7237;49.500;11.400;2024-03-02T05:27:25;26.10;;;16.03;;
14306;SDS011;7237;49.500;11.400;2024-03-02T05:29:52;25.17;;;16.50;;
14306;SDS011;7237;49.500;11.400;2024-03-02T05:32:21;27.73;;;17.40;;
14306;SDS011;7237;49.500;11.400;2024-03-02T05:34:48;21.47;;;15.50;;
14306;SDS011;7237;49.500;11.400;2024-03-02T05:37:15;25.97;;;16.17;;
14306;SDS011;7237;49.500;11.400;2024-03-02T05:39:42;25.83;;;17.90;;
14306;SDS011;7237;49.500;11.400;2024-03-02T05:42:09;22.93;;;16.90;;
14306;SDS011;7237;49.500;11.400;2024-03-02T05:44:37;21.90;;;15.93;;
14306;SDS011;7237;49.500;11.400;2024-03-02T05:47:04;24.83;;;16.47;;
14306;SDS011;7237;49.500;11.400;2024-03-02T05:49:35;26.53;;;15.43;;
14306;SDS011;7237;49.500;11.400;2024-03-02T05:52:02;26.40;;;16.07;;
14306;SDS011;7237;49.500;11.400;2024-03-02T05:54:29;23.50;;;16.47;;
14306;SDS011;7237;49.500;11.400;2024-03-02T05:56:56;25.23;;;16.27;;
14306;SDS011;7237;49.500;11.400;2024-03-02T05:59:41;24.00;;;15.93;;
14306;SDS011;7237;49.500;11.400;2024-03-02T06:02:08;24.07;;;16.73;;
14306;SDS011;7237;49.500;11.400;2024-03-02T06:04:37;23.47;;;15.67;;
14306;SDS011;7237;49.500;11.400;2024-03-02T06:07:04;22.90;;;16.13;;
14306;SDS011;7237;49.500;11.400;2024-03-02T06:09:31;24.33;;;16.27;;
14306;SDS011;7237;49.500;11.400;2024-03-02T06:11:58;23.30;;;15.93;;
14306;SDS011;7237;49.500;11.400;2024-03-02T06:14:25;22.33;;;16.33;;
14306;SDS011;7237;49.500;11.400;2024-03-02T06:16:52;22.00;;;15.93;;
14306;SDS011;7237;49.500;11.400;2024-03-02T06:19:19;25.90;;;17.47;;
14306;SDS011;7237;49.500;11.400;2024-03-02T06:21:48;25.50;;;15.90;;
14306;SDS011;7237;49.500;11.400;2024-03-02T06:24:15;21.50;;;15.30;;
14306;SDS011;7237;49.500;11.400;2024-03-02T06:26:42;22.77;;;15.87;;
14306;SDS011;7237;49.500;11.400;2024-03-02T06:29:09;22.50;;;15.73;;
14306;SDS011;7237;49.500;11.400;2024-03-02T06:31:36;24.87;;;15.37;;
14306;SDS011;7237;49.500;11.400;2024-03-02T06:34:03;22.10;;;15.67;;
14306;SDS011;7237;49.500;11.400;2024-03-02T06:36:30;24.57;;;16.30;;
14306;SDS011;7237;49.500;11.400;2024-03-02T06:38:58;20.93;;;14.20;;
14306;SDS011;7237;49.500;11.400;2024-03-02T06:41:25;24.17;;;15.23;;
14306;SDS011;7237;49.500;11.400;2024-03-02T06:43:52;21.30;;;14.73;;
14306;SDS011;7237;49.500;11.400;2024-03-02T06:46:24;19.23;;;14.13;;
14306;SDS011;7237;49.500;11.400;2024-03-02T06:48:51;23.93;;;14.53;;
14306;SDS011;7237;49.500;11.400;2024-03-02T06:51:18;23.93;;;15.07;;
14306;SDS011;7237;49.500;11.400;2024-03-02T06:53:45;20.33;;;13.67;;
14306;SDS011;7237;49.500;11.400;2024-03-02T06:56:14;20.20;;;13.97;;
14306;SDS011;7237;49.500;11.400;2024-03-02T06:58:41;19.07;;;14.07;;
14306;SDS011;7237;49.500;11.400;2024-03-02T07:01:08;19.60;;;14.47;;
14306;SDS011;7237;49.500;11.400;2024-03-02T07:03:36;22.30;;;14.47;;
14306;SDS011;7237;49.500;11.400;2024-03-02T07:06:04;19.20;;;14.43;;
14306;SDS011;7237;49.500;11.400;2024-03-02T07:08:31;22.03;;;14.40;;
14306;SDS011;7237;49.500;11.400;2024-03-02T07:10:58;22.80;;;15.33;;
14306;SDS011;7237;49.500;11.400;2024-03-02T07:13:27;23.70;;;14.93;;
14306;SDS011;7237;49.500;11.400;2024-03-02T07:15:54;19.73;;;14.43;;
14306;SDS011;7237;49.500;11.400;2024-03-02T07:18:47;19.87;;;15.10;;
14306;SDS011;7237;49.500;11.400;2024-03-02T07:21:16;20.77;;;14.87;;
14306;SDS011;7237;49.500;11.400;2024-03-02T07:23:44;21.40;;;15.33;;
14306;SDS011;7237;49.500;11.400;2024-03-02T07:26:11;21.10;;;15.63;;
14306;SDS011;7237;49.500;11.400;2024-03-02T07:28:39;21.87;;;15.07;;
14306;SDS011;7237;49.500;11.400;2024-03-02T07:31:06;22.03;;;15.43;;
14306;SDS011;7237;49.500;11.400;2024-03-02T07:33:35;23.00;;;16.53;;
14306;SDS011;7237;49.500;11.400;2024-03-02T07:36:02;20.83;;;15.93;;
14306;SDS011;7237;49.500;11.400;2024-03-02T07:38:29;18.87;;;15.87;;
14306;SDS011;7237;49.500;11.400;2024-03-02T07:40:56;20.93;;;15.83;;
14306;SDS011;7237;49.500;11.400;2024-03-02T07:43:25;18.93;;;14.90;;
14306;SDS011;7237;49.500;11.400;2024-03-02T07:45:53;16.90;;;13.77;;
14306;SDS011;7237;49.500;11.400;2024-03-02T07:48:20;17.57;;;13.83;;
14306;SDS011;7237;49.500;11.400;2024-03-02T07:50:47;19.37;;;14.47;;
14306;SDS011;7237;49.500;11.400;2024-03-02T07:53:15;18.27;;;13.87;;
14306;SDS011;7237;49.500;11.400;2024-03-02T07:55:42;19.37;;;13.33;;
14306;SDS011;7237;49.500;11.400;2024-03-02T07:58:09;16.67;;;12.70;;
14306;SDS011;7237;49.500;11.400;2024-03-02T08:00:38;17.80;;;12.40;;
14306;SDS011;7237;49.500;11.400;2024-03-02T08:03:06;14.37;;;11.30;;
14306;SDS011;7237;49.500;11.400;2024-03-02T08:05:36;15.87;;;12.30;;
14306;SDS011;7237;49.500;11.400;2024-03-02T08:08:03;16.60;;;11.77;;
14306;SDS011;7237;49.500;11.400;2024-03-02T08:10:31;15.77;;;12.37;;
14306;SDS011;7237;49.500;11.400;2024-03-02T08:12:58;12.50;;;10.70;;
14306;SDS011;7237;49.500;11.400;2024-03-02T08:15:26;13.40;;;11.50;;
14306;SDS011;7237;49.500;11.400;2024-03-02T08:17:53;13.03;;;11.63;;
14306;SDS011;7237;49.500;11.400;2024-03-02T08:20:22;11.63;;;10.40;;
14306;SDS011;7237;49.500;11.400;2024-03-02T08:22:49;13.63;;;11.40;;
14306;SDS011;7237;49.500;11.400;2024-03-02T08:25:17;12.87;;;10.53;;
14306;SDS011;7237;49.500;11.400;2024-03-02T08:27:44;11.57;;;10.13;;
14306;SDS011;7237;49.500;11.400;2024-03-02T08:30:11;14.33;;;9.80;;
14306;SDS011;7237;49.500;11.400;2024-03-02T08:32:39;11.67;;;9.70;;
14306;SDS011;7237;49.500;11.400;2024-03-02T08:35:06;10.50;;;9.40;;
14306;SDS011;7237;49.500;11.400;2024-03-02T08:37:34;11.67;;;9.17;;
14306;SDS011;7237;49.500;11.400;2024-03-02T08:40:04;10.93;;;9.80;;
14306;SDS011;7237;49.500;11.400;2024-03-02T08:42:32;11.87;;;9.30;;
14306;SDS011;7237;49.500;11.400;2024-03-02T08:44:59;10.17;;;9.03;;
14306;SDS011;7237;49.500;11.400;2024-03-02T08:47:27;10.13;;;9.03;;
14306;SDS011;7237;49.500;11.400;2024-03-02T08:49:54;10.87;;;9.07;;
14306;SDS011;7237;49.500;11.400;2024-03-02T08:52:21;9.73;;;8.50;;
14306;SDS011;7237;49.500;11.400;2024-03-02T08:54:49;9.60;;;8.40;;
14306;SDS011;7237;49.500;11.400;2024-03-02T08:57:16;9.37;;;8.47;;
14306;SDS011;7237;49.500;11.400;2024-03-02T08:59:43;9.60;;;8.60;;
14306;SDS011;7237;49.500;11.400;2024-03-02T09:02:11;10.07;;;7.67;;
14306;SDS011;7237;49.500;11.400;2024-03-02T09:04:38;9.60;;;7.77;;
14306;SDS011;7237;49.500;11.400;2024-03-02T09:07:05;8.60;;;7.70;;
14306;SDS011;7237;49.500;11.400;2024-03-02T09:09:32;8.27;;;7.33;;
14306;SDS011;7237;49.500;11.400;2024-03-02T09:12:01;7.67;;;6.73;;
14306;SDS011;7237;49.500;11.400;2024-03-02T09:14:28;8.10;;;6.73;;
14306;SDS011;7237;49.500;11.400;2024-03-02T09:16:55;7.53;;;6.83;;
14306;SDS011;7237;49.500;11.400;2024-03-02T09:19:22;8.30;;;6.87;;
14306;SDS011;7237;49.500;11.400;2024-03-02T09:21:49;7.63;;;6.90;;
14306;SDS011;7237;49.500;11.400;2024-03-02T09:24:16;8.30;;;6.50;;
14306;SDS011;7237;49.500;11.400;2024-03-02T09:26:43;8.03;;;6.97;;
14306;SDS011;7237;49.500;11.400;2024-03-02T09:29:12;7.00;;;6.30;;
14306;SDS011;7237;49.500;11.400;2024-03-02T09:31:39;6.87;;;6.17;;
14306;SDS011;7237;49.500;11.400;2024-03-02T09:34:06;8.07;;;7.27;;
14306;SDS011;7237;49.500;11.400;2024-03-02T09:36:33;7.70;;;6.73;;
14306;SDS011;7237;49.500;11.400;2024-03-02T09:39:01;7.80;;;7.00;;
14306;SDS011;7237;49.500;11.400;2024-03-02T09:41:28;6.63;;;6.03;;
14306;SDS011;7237;49.500;11.400;2024-03-02T09:43:56;7.90;;;6.33;;
14306;SDS011;7237;49.500;11.400;2024-03-02T09:46:25;7.07;;;6.43;;
14306;SDS011;7237;49.500;11.400;2024-03-02T09:48:52;6.80;;;6.20;;
14306;SDS011;7237;49.500;11.400;2024-03-02T09:51:19;7.03;;;6.35;;
14306;SDS011;7237;49.500;11.400;2024-03-02T09:53:47;6.47;;;5.87;;
14306;SDS011;7237;49.500;11.400;2024-03-02T09:56:14;7.53;;;6.82;;
14306;SDS011;7237;49.500;11.400;2024-03-02T09:58:43;7.38;;;6.68;;
14306;SDS011;7237;49.500;11.400;2024-03-02T10:01:10;8.25;;;6.55;;
14306;SDS011;7237;49.500;11.400;2024-03-02T10:03:39;7.07;;;6.38;;
14306;SDS011;7237;49.500;11.400;2024-03-02T10:06:18;6.82;;;6.18;;
14306;SDS011;7237;49.500;11.400;2024-03-02T10:08:45;7.85;;;7.05;;
14306;SDS011;7237;49.500;11.400;2024-03-02T10:11:17;7.75;;;6.97;;
14306;SDS011;7237;49.500;11.400;2024-03-02T10:13:54;8.80;;;7.10;;
14306;SDS011;7237;49.500;11.400;2024-03-02T10:16:33;8.17;;;7.37;;
14306;SDS011;7237;49.500;11.400;2024-03-02T10:19:06;7.57;;;6.80;;
14306;SDS011;7237;49.500;11.400;2024-03-02T10:21:41;6.67;;;6.07;;
14306;SDS011;7237;49.500;11.400;2024-03-02T10:24:08;6.73;;;6.03;;
14306;SDS011;7237;49.500;11.400;2024-03-02T10:26:35;7.77;;;6.93;;
14306;SDS011;7237;49.500;11.400;2024-03-02T10:29:02;7.60;;;6.90;;
14306;SDS011;7237;49.500;11.400;2024-03-02T10:31:30;6.80;;;6.13;;
14306;SDS011;7237;49.500;11.400;2024-03-02T10:33:57;7.23;;;6.03;;
14306;SDS011;7237;49.500;11.400;2024-03-02T10:36:26;7.83;;;7.03;;
14306;SDS011;7237;49.500;11.400;2024-03-02T10:38:53;7.90;;;7.10;;
14306;SDS011;7237;49.500;11.400;2024-03-02T10:41:20;8.00;;;7.20;;
14306;SDS011;7237;49.500;11.400;2024-03-02T10:43:51;9.80;;;7.53;;
14306;SDS011;7237;49.500;11.400;2024-03-02T10:46:24;7.43;;;6.63;;
14306;SDS011;7237;49.500;11.400;2024-03-02T10:48:54;9.30;;;7.57;;
14306;SDS011;7237;49.500;11.400;2024-03-02T10:51:21;7.93;;;7.17;;
14306;SDS011;7237;49.500;11.400;2024-03-02T10:53:49;10.20;;;8.43;;
14306;SDS011;7237;49.500;11.400;2024-03-02T10:56:22;8.32;;;7.53;;
14306;SDS011;7237;49.500;11.400;2024-03-02T10:58:55;7.97;;;7.10;;
14306;SDS011;7237;49.500;11.400;2024-03-02T11:01:26;9.77;;;8.80;;
14306;SDS011;7237;49.500;11.400;2024-03-02T11:03:53;8.65;;;7.75;;
14306;SDS011;7237;49.500;11.400;2024-03-02T11:06:21;9.50;;;7.40;;
14306;SDS011;7237;49.500;11.400;2024-03-02T11:08:51;8.80;;;7.90;;
14306;SDS011;7237;49.500;11.400;2024-03-02T11:11:21;8.67;;;7.77;;
14306;SDS011;7237;49.500;11.400;2024-03-02T11:13:52;9.90;;;8.13;;
14306;SDS011;7237;49.500;11.400;2024-03-02T11:16:22;8.70;;;7.80;;
14306;SDS011;7237;49.500;11.400;2024-03-02T11:18:55;9.87;;;8.87;;
14306;SDS011;7237;49.500;11.400;2024-03-02T11:21:23;12.30;;;10.10;;
14306;SDS011;7237;49.500;11.400;2024-03-02T11:23:52;10.40;;;8.87;;
14306;SDS011;7237;49.500;11.400;2024-03-02T11:26:20;10.30;;;9.23;;
14306;SDS011;7237;49.500;11.400;2024-03-02T11:28:49;10.70;;;8.60;;
14306;SDS011;7237;49.500;11.400;2024-03-02T11:31:16;9.60;;;8.57;;
14306;SDS011;7237;49.500;11.400;2024-03-02T11:33:43;11.40;;;9.50;;
14306;SDS011;7237;49.500;11.400;2024-03-02T11:36:11;11.43;;;10.10;;
14306;SDS011;7237;49.500;11.400;2024-03-02T11:38:38;11.30;;;9.27;;
14306;SDS011;7237;49.500;11.400;2024-03-02T11:41:06;11.35;;;10.07;;
14306;SDS011;7237;49.500;11.400;2024-03-02T11:43:36;13.30;;;10.57;;
14306;SDS011;7237;49.500;11.400;2024-03-02T11:46:05;9.93;;;8.93;;
14306;SDS011;7237;49.500;11.400;2024-03-02T11:48:34;12.63;;;9.05;;
14306;SDS011;7237;49.500;11.400;2024-03-02T11:51:02;10.70;;;9.23;;
14306;SDS011;7237;49.500;11.400;2024-03-02T11:53:29;11.57;;;10.37;;
14306;SDS011;7237;49.500;11.400;2024-03-02T11:55:58;12.77;;;10.10;;
14306;SDS011;7237;49.500;11.400;2024-03-02T11:58:28;11.97;;;10.20;;
14306;SDS011;7237;49.500;11.400;2024-03-02T12:00:55;12.77;;;11.10;;
14306;SDS011;7237;49.500;11.400;2024-03-02T12:03:23;12.43;;;10.53;;
14306;SDS011;7237;49.500;11.400;2024-03-02T12:05:50;13.30;;;10.80;;
14306;SDS011;7237;49.500;11.400;2024-03-02T12:08:17;12.97;;;11.50;;
14306;SDS011;7237;49.500;11.400;2024-03-02T12:10:55;13.17;;;11.47;;
14306;SDS011;7237;49.500;11.400;2024-03-02T12:13:22;12.93;;;10.77;;
14306;SDS011;7237;49.500;11.400;2024-03-02T12:15:52;13.93;;;11.07;;
14306;SDS011;7237;49.500;11.400;2024-03-02T12:18:20;13.57;;;11.00;;
14306;SDS011;7237;49.500;11.400;2024-03-02T12:20:48;15.03;;;10.27;;
14306;SDS011;7237;49.500;11.400;2024-03-02T12:23:17;13.50;;;10.27;;
14306;SDS011;7237;49.500;11.400;2024-03-02T12:25:44;14.33;;;11.13;;
14306;SDS011;7237;49.500;11.400;2024-03-02T12:28:12;13.23;;;10.77;;
14306;SDS011;7237;49.500;11.400;2024-03-02T12:30:39;12.40;;;10.60;;
14306;SDS011;7237;49.500;11.400;2024-03-02T12:33:07;13.43;;;10.50;;
14306;SDS011;7237;49.500;11.400;2024-03-02T12:35:35;13.13;;;10.47;;
14306;SDS011;7237;49.500;11.400;2024-03-02T12:38:03;13.07;;;11.00;;
14306;SDS011;7237;49.500;11.400;2024-03-02T12:40:30;13.53;;;10.30;;
14306;SDS011;7237;49.500;11.400;2024-03-02T12:42:57;14.70;;;11.73;;
14306;SDS011;7237;49.500;11.400;2024-03-02T12:45:25;15.03;;;11.57;;
14306;SDS011;7237;49.500;11.400;2024-03-02T12:47:53;16.60;;;12.87;;
14306;SDS011;7237;49.500;11.400;2024-03-02T12:50:22;14.20;;;11.83;;
14306;SDS011;7237;49.500;11.400;2024-03-02T12:52:52;15.27;;;12.33;;
14306;SDS011;7237;49.500;11.400;2024-03-02T12:55:20;14.57;;;12.23;;
14306;SDS011;7237;49.500;11.400;2024-03-02T12:57:49;16.23;;;12.55;;
14306;SDS011;7237;49.500;11.400;2024-03-02T13:00:17;16.23;;;13.88;;
14306;SDS011;7237;49.500;11.400;2024-03-02T13:02:45;13.07;;;11.07;;
14306;SDS011;7237;49.500;11.400;2024-03-02T13:05:12;12.87;;;11.50;;
14306;SDS011;7237;49.500;11.400;2024-03-02T13:07:41;14.73;;;10.83;;
14306;SDS011;7237;49.500;11.400;2024-03-02T13:10:09;17.27;;;12.40;;
14306;SDS011;7237;49.500;11.400;2024-03-02T13:12:37;17.63;;;13.30;;
14306;SDS011;7237;49.500;11.400;2024-03-02T13:15:04;14.97;;;12.10;;
14306;SDS011;7237;49.500;11.400;2024-03-02T13:17:33;16.30;;;12.77;;
14306;SDS011;7237;49.500;11.400;2024-03-02T13:20:01;15.77;;;12.33;;
14306;SDS011;7237;49.500;11.400;2024-03-02T13:22:33;16.33;;;13.03;;
14306;SDS011;7237;49.500;11.400;2024-03-02T13:25:01;16.33;;;12.60;;
14306;SDS011;7237;49.500;11.400;2024-03-02T13:27:29;16.90;;;13.27;;
14306;SDS011;7237;49.500;11.400;2024-03-02T13:29:57;18.07;;;12.50;;
14306;SDS011;7237;49.500;11.400;2024-03-02T13:32:24;19.37;;;13.37;;
14306;SDS011;7237;49.500;11.400;2024-03-02T13:34:51;18.87;;;13.23;;
14306;SDS011;7237;49.500;11.400;2024-03-02T13:37:19;14.80;;;12.40;;
14306;SDS011;7237;49.500;11.400;2024-03-02T13:39:46;15.30;;;12.33;;
14306;SDS011;7237;49.500;11.400;2024-03-02T13:42:15;15.67;;;12.13;;
14306;SDS011;7237;49.500;11.400;2024-03-02T13:44:43;15.40;;;12.07;;
14306;SDS011;7237;49.500;11.400;2024-03-02T13:47:10;16.57;;;12.97;;
14306;SDS011;7237;49.500;11.400;2024-03-02T13:49:37;18.60;;;14.17;;
14306;SDS011;7237;49.500;11.400;2024-03-02T13:52:08;16.17;;;12.93;;
14306;SDS011;7237;49.500;11.400;2024-03-02T13:54:38;19.67;;;14.80;;
14306;SDS011;7237;49.500;11.400;2024-03-02T13:57:05;16.53;;;12.53;;
14306;SDS011;7237;49.500;11.400;2024-03-02T13:59:33;19.50;;;16.42;;
14306;SDS011;7237;49.500;11.400;2024-03-02T14:02:01;16.13;;;12.50;;
14306;SDS011;7237;49.500;11.400;2024-03-02T14:04:29;19.70;;;13.83;;
14306;SDS011;7237;49.500;11.400;2024-03-02T14:06:56;15.03;;;12.27;;
14306;SDS011;7237;49.500;11.400;2024-03-02T14:09:23;15.17;;;12.53;;
14306;SDS011;7237;49.500;11.400;2024-03-02T14:11:50;17.33;;;13.33;;
14306;SDS011;7237;49.500;11.400;2024-03-02T14:14:17;17.57;;;13.27;;
14306;SDS011;7237;49.500;11.400;2024-03-02T14:16:46;18.50;;;13.40;;
14306;SDS011;7237;49.500;11.400;2024-03-02T14:19:13;16.87;;;12.80;;
14306;SDS011;7237;49.500;11.400;2024-03-02T14:21:40;17.43;;;12.13;;
14306;SDS011;7237;49.500;11.400;2024-03-02T14:24:07;17.23;;;13.17;;
14306;SDS011;7237;49.500;11.400;2024-03-02T14:26:35;16.87;;;12.43;;
14306;SDS011;7237;49.500;11.400;2024-03-02T14:29:02;15.87;;;12.87;;
14306;SDS011;7237;49.500;11.400;2024-03-02T14:31:29;17.83;;;12.70;;
14306;SDS011;7237;49.500;11.400;2024-03-02T14:33:58;16.97;;;13.23;;